Time;durP1;ratioP1;P1;durP2;ratioP2;P2;SDS_P1;SDS_P2;PMS_P1;PMS_P2;Temp;Humidity;BMP_temperature;BMP_pressure;BME280_temperature;BME280_humidity;BME280_pressure;Samples;Min_cycle;Max_cycle;Signal;HPM_P1;HPM_P2
2022/02/01 00:01:09;;;;;;;18.10;17.05;;;4.60;87.20;;;;;;5052893;28;20235;-70
2022/02/01 00:03:38;;;;;;;18.48;17.30;;;4.50;86.70;;;;;;5053027;28;20270;-71
2022/02/01 00:06:12;;;;;;;18.00;16.90;;;4.40;87.50;;;;;;5053191;28;20548;-71
2022/02/01 00:08:46;;;;;;;17.88;16.88;;;4.40;87.70;;;;;;5052884;28;20196;-71
2022/02/01 00:11:26;;;;;;;17.92;16.83;;;4.50;87.60;;;;;;5052405;28;20251;-70
2022/02/01 00:14:06;;;;;;;18.85;17.52;;;4.60;88.10;;;;;;5052855;28;20195;-71
2022/02/01 00:36:00;;;;;;;17.00;16.02;;;4.60;87.10;;;;;;5039409;28;20225;-71
2022/02/01 00:38:34;;;;;;;17.10;16.15;;;4.60;87.10;;;;;;5052480;28;20197;-71
2022/02/01 00:41:04;;;;;;;16.80;16.00;;;4.50;87.30;;;;;;5052307;28;20217;-70
2022/02/01 00:43:31;;;;;;;17.13;16.23;;;4.50;87.50;;;;;;5052458;28;20598;-71
2022/02/01 00:46:02;;;;;;;17.65;16.75;;;4.50;87.00;;;;;;5052321;28;20197;-71
2022/02/01 00:48:29;;;;;;;17.38;16.48;;;4.40;88.00;;;;;;5052345;28;20625;-70
2022/02/01 00:50:56;;;;;;;17.38;16.27;;;4.50;88.00;;;;;;5052016;28;20749;-70
2022/02/01 00:53:28;;;;;;;17.15;16.05;;;4.50;88.20;;;;;;5052438;28;20200;-70
2022/02/01 00:55:55;;;;;;;17.38;16.27;;;4.60;87.90;;;;;;5052361;28;20204;-71
2022/02/01 00:58:22;;;;;;;16.70;15.70;;;4.60;88.30;;;;;;5052315;28;20239;-70
2022/02/01 01:00:51;;;;;;;17.38;16.20;;;4.50;89.20;;;;;;5051829;28;20315;-71
2022/02/01 01:03:20;;;;;;;16.00;15.20;;;4.50;90.30;;;;;;5052369;28;20227;-71
2022/02/01 01:05:47;;;;;;;15.52;14.82;;;4.50;90.40;;;;;;5052209;28;20200;-71
2022/02/01 01:08:14;;;;;;;16.85;15.88;;;4.50;91.10;;;;;;5052131;28;20279;-71
2022/02/01 01:10:41;;;;;;;16.48;15.40;;;4.50;90.70;;;;;;5051720;28;20227;-71
2022/02/01 01:13:20;;;;;;;16.50;15.70;;;4.50;89.90;;;;;;5052089;28;20559;-71
2022/02/01 01:15:55;;;;;;;17.50;16.48;;;4.40;89.30;;;;;;5051927;28;20658;-71
2022/02/01 01:18:53;;;;;;;17.10;16.20;;;4.40;89.80;;;;;;5052062;28;20200;-71
2022/02/01 01:46:16;;;;;;;18.27;17.08;;;4.30;87.60;;;;;;5055799;28;20612;-71
2022/02/01 01:54:14;;;;;;;18.50;16.85;;;4.40;87.40;;;;;;5034380;28;20196;-70
2022/02/01 01:56:41;;;;;;;18.08;16.80;;;4.50;87.30;;;;;;5055528;28;20199;-70
2022/02/01 01:59:09;;;;;;;17.95;16.70;;;4.50;87.30;;;;;;5055155;28;20201;-71
2022/02/01 02:01:37;;;;;;;17.65;16.45;;;4.50;87.00;;;;;;5055341;28;20225;-71
2022/02/01 02:04:05;;;;;;;18.20;16.90;;;4.40;87.90;;;;;;5055214;28;20294;-71
2022/02/01 02:06:34;;;;;;;18.25;16.95;;;4.40;87.60;;;;;;5055348;28;20356;-70
2022/02/01 02:09:03;;;;;;;17.48;16.17;;;4.40;87.60;;;;;;5055213;28;20284;-70
2022/02/01 02:11:34;;;;;;;17.73;16.48;;;4.30;87.60;;;;;;5054717;28;20646;-70
2022/02/01 02:14:19;;;;;;;17.63;16.33;;;4.40;88.20;;;;;;5055064;28;20716;-71
2022/02/01 02:16:48;;;;;;;17.92;16.45;;;4.40;88.00;;;;;;5055092;28;20192;-70
2022/02/01 02:19:16;;;;;;;19.33;18.13;;;4.30;88.90;;;;;;5054788;28;20197;-71
2022/02/01 02:21:49;;;;;;;18.35;16.80;;;4.40;88.20;;;;;;5055072;28;20261;-70
2022/02/01 02:24:16;;;;;;;18.02;16.48;;;4.20;87.90;;;;;;5054753;28;20216;-71
2022/02/01 02:26:44;;;;;;;17.63;16.48;;;4.30;88.60;;;;;;5055153;28;20285;-71
2022/02/01 02:29:12;;;;;;;18.17;16.55;;;4.40;88.50;;;;;;5054674;28;20279;-71
2022/02/01 02:31:39;;;;;;;18.15;17.00;;;4.30;88.30;;;;;;5054874;28;20307;-71
2022/02/01 02:34:11;;;;;;;17.70;16.65;;;4.10;89.60;;;;;;5054716;28;20714;-71
2022/02/01 02:36:43;;;;;;;19.13;17.40;;;4.00;89.90;;;;;;5054631;28;20197;-70
2022/02/01 02:39:23;;;;;;;17.52;16.50;;;4.10;90.40;;;;;;5054501;28;20299;-71
2022/02/01 02:42:06;;;;;;;17.73;16.30;;;4.20;89.50;;;;;;5054756;28;20220;-71
2022/02/01 02:47:17;;;;;;;18.30;17.10;;;4.20;90.10;;;;;;5054625;28;20661;-71
2022/02/01 02:49:44;;;;;;;18.23;16.77;;;4.10;89.80;;;;;;5054172;28;20251;-70
2022/02/01 02:52:11;;;;;;;18.40;17.20;;;3.90;89.90;;;;;;5054406;28;20204;-70
2022/02/01 02:54:39;;;;;;;17.83;16.50;;;4.00;90.60;;;;;;5054572;28;20279;-71
2022/02/01 02:57:07;;;;;;;18.95;17.55;;;4.10;89.70;;;;;;5054362;28;20206;-70
2022/02/01 02:59:35;;;;;;;19.23;17.30;;;4.00;89.00;;;;;;5053862;28;20624;-70
2022/02/01 03:02:04;;;;;;;19.33;17.80;;;4.00;89.20;;;;;;5054361;28;20566;-71
2022/02/01 03:04:32;;;;;;;20.02;16.88;;;4.10;89.30;;;;;;5053989;28;20739;-71
2022/02/01 03:07:01;;;;;;;19.85;18.08;;;4.00;89.30;;;;;;5054140;28;20231;-71
2022/02/01 03:09:30;;;;;;;19.25;17.75;;;4.10;88.90;;;;;;5053894;28;20234;-71
2022/02/01 03:12:01;;;;;;;64.82;21.13;;;4.10;89.00;;;;;;5053704;28;20232;-71
2022/02/01 03:14:43;;;;;;;18.58;16.67;;;4.10;89.90;;;;;;5054198;28;20230;-71
2022/02/01 03:17:18;;;;;;;20.00;18.00;;;4.20;89.90;;;;;;5053932;28;20548;-70
2022/02/01 03:19:49;;;;;;;20.90;18.80;;;4.10;88.00;;;;;;5053640;28;20740;-70
2022/02/01 03:22:18;;;;;;;20.98;19.10;;;4.20;88.50;;;;;;5053868;28;20189;-70
2022/02/01 03:24:44;;;;;;;19.73;18.20;;;4.00;87.00;;;;;;5053646;28;20781;-71
2022/02/01 03:27:13;;;;;;;19.85;18.45;;;4.10;86.40;;;;;;5053831;28;20662;-71
2022/02/01 03:29:41;;;;;;;20.50;18.75;;;4.10;86.50;;;;;;5053460;28;20659;-70
2022/02/01 03:32:09;;;;;;;19.25;17.90;;;4.10;87.20;;;;;;5053668;28;20295;-70
2022/02/01 03:34:36;;;;;;;20.08;18.27;;;4.30;86.30;;;;;;5053625;28;20195;-71
2022/02/01 03:37:05;;;;;;;20.27;18.58;;;4.20;86.10;;;;;;5053384;28;20618;-71
2022/02/01 03:39:32;;;;;;;20.20;18.27;;;4.10;86.50;;;;;;5053052;28;20192;-70
2022/02/01 03:42:01;;;;;;;20.30;18.50;;;3.90;87.30;;;;;;5053431;28;20280;-70
2022/02/01 03:44:29;;;;;;;19.70;17.92;;;3.90;88.00;;;;;;5053382;28;20590;-70
2022/02/01 03:47:01;;;;;;;20.70;18.88;;;3.80;88.30;;;;;;5053474;28;20200;-71
2022/02/01 03:49:32;;;;;;;19.95;18.00;;;3.80;88.30;;;;;;5053000;28;20201;-70
2022/02/01 03:51:59;;;;;;;20.27;18.45;;;3.90;89.90;;;;;;5053363;28;20555;-71
2022/02/01 03:54:28;;;;;;;19.58;17.80;;;4.10;89.40;;;;;;5053191;28;20189;-71
2022/02/01 03:56:55;;;;;;;20.70;18.85;;;4.00;87.60;;;;;;5052638;28;20284;-71
2022/02/01 03:59:23;;;;;;;21.88;20.02;;;4.10;87.50;;;;;;5052867;28;20689;-70
2022/02/01 04:01:55;;;;;;;20.55;19.15;;;4.10;86.40;;;;;;5052984;28;20419;-71
2022/02/01 04:04:22;;;;;;;20.92;18.70;;;4.10;87.20;;;;;;5052997;28;20220;-71
2022/02/01 04:06:49;;;;;;;20.83;18.98;;;4.00;87.20;;;;;;5053112;28;20686;-70
2022/02/01 04:09:16;;;;;;;22.90;20.55;;;4.10;87.40;;;;;;5052780;28;20295;-70
2022/02/01 04:11:43;;;;;;;21.10;19.08;;;4.20;87.10;;;;;;5052807;28;20399;-70
2022/02/01 04:14:12;;;;;;;20.98;19.48;;;4.20;86.40;;;;;;5052817;28;20205;-71
2022/02/01 04:16:39;;;;;;;20.00;18.15;;;4.30;86.80;;;;;;5052734;28;20603;-71
2022/02/01 04:19:07;;;;;;;21.30;19.20;;;4.30;86.20;;;;;;5052886;28;20594;-71
2022/02/01 04:21:34;;;;;;;20.00;18.70;;;4.30;85.70;;;;;;5052814;28;20248;-71
2022/02/01 04:24:01;;;;;;;20.95;19.35;;;4.30;84.30;;;;;;5052650;28;20212;-71
2022/02/01 04:26:28;;;;;;;21.63;19.83;;;4.30;84.40;;;;;;5052733;28;20287;-70
2022/02/01 04:28:55;;;;;;;21.77;19.83;;;4.20;84.50;;;;;;5052532;28;20602;-71
2022/02/01 04:31:22;;;;;;;20.98;19.30;;;4.20;84.60;;;;;;5052418;28;20582;-71
2022/02/01 04:33:49;;;;;;;27.48;21.23;;;4.10;84.70;;;;;;5052639;28;20223;-70
2022/02/01 04:36:17;;;;;;;21.08;19.17;;;4.10;84.70;;;;;;5052423;28;20539;-71
2022/02/01 04:38:53;;;;;;;19.20;17.95;;;4.10;85.30;;;;;;5052422;28;20203;-71
2022/02/01 04:41:20;;;;;;;20.02;18.40;;;4.20;85.50;;;;;;5052419;28;20216;-70
2022/02/01 04:43:47;;;;;;;20.77;18.70;;;4.20;84.50;;;;;;5052336;28;20248;-71
2022/02/01 04:46:14;;;;;;;21.33;19.40;;;4.30;84.40;;;;;;5052472;28;20192;-71
2022/02/01 04:48:41;;;;;;;21.60;19.48;;;4.30;83.90;;;;;;5052230;28;20196;-71
2022/02/01 04:51:08;;;;;;;20.63;18.98;;;4.30;84.30;;;;;;5052211;28;20303;-71
2022/02/01 04:53:36;;;;;;;21.60;19.20;;;4.40;84.10;;;;;;5052355;28;20193;-71
2022/02/01 04:56:03;;;;;;;23.25;21.40;;;4.40;82.60;;;;;;5052280;28;20200;-71
2022/02/01 04:58:30;;;;;;;22.02;20.33;;;4.20;82.10;;;;;;5052318;28;20207;-71
2022/02/01 05:00:57;;;;;;;23.23;21.17;;;4.20;82.80;;;;;;5051962;28;20252;-70
2022/02/01 05:03:24;;;;;;;22.90;20.58;;;4.00;82.40;;;;;;5052427;28;20208;-71
2022/02/01 05:05:51;;;;;;;21.70;19.92;;;4.00;83.00;;;;;;5052244;28;20292;-71
2022/02/01 05:08:18;;;;;;;21.13;19.65;;;4.10;82.90;;;;;;5058571;28;20279;-71
2022/02/01 05:10:46;;;;;;;22.95;21.05;;;4.00;82.60;;;;;;5058270;28;20652;-70
2022/02/01 05:16:10;;;;;;;24.30;20.63;;;3.90;82.40;;;;;;5034039;28;20558;-71
2022/02/01 05:18:45;;;;;;;21.35;19.75;;;4.00;81.90;;;;;;5058744;28;20277;-71
2022/02/01 05:21:18;;;;;;;21.83;20.00;;;4.10;82.20;;;;;;5058403;28;20705;-71
2022/02/01 05:23:45;;;;;;;23.10;20.90;;;4.00;82.10;;;;;;5058651;28;20294;-71
2022/02/01 05:26:13;;;;;;;22.58;20.77;;;3.80;82.40;;;;;;5058524;28;20749;-71
2022/02/01 05:28:41;;;;;;;22.83;20.52;;;3.80;83.00;;;;;;5058606;28;20749;-71
2022/02/01 05:31:08;;;;;;;22.02;19.90;;;3.80;82.20;;;;;;5058370;28;20216;-71
2022/02/01 05:33:35;;;;;;;22.20;19.90;;;3.90;82.20;;;;;;5058699;28;20215;-70
2022/02/01 05:36:05;;;;;;;23.48;21.50;;;3.80;81.30;;;;;;5058898;28;20222;-70
2022/02/01 05:38:32;;;;;;;22.10;20.30;;;3.80;80.70;;;;;;5058441;28;20210;-70
2022/02/01 05:40:59;;;;;;;22.92;21.02;;;3.90;81.40;;;;;;5058300;28;20211;-70
2022/02/01 05:43:28;;;;;;;23.38;20.80;;;3.90;80.00;;;;;;5058537;28;20196;-70
2022/02/01 05:45:57;;;;;;;25.20;23.05;;;4.00;80.20;;;;;;5058581;28;20681;-70
2022/02/01 05:48:25;;;;;;;22.33;20.83;;;4.10;80.00;;;;;;5058369;28;20259;-70
2022/02/01 05:50:54;;;;;;;29.45;21.95;;;4.10;79.60;;;;;;5058294;28;20220;-70
2022/02/01 05:53:21;;;;;;;24.08;21.75;;;4.10;80.10;;;;;;5058482;28;20398;-70
2022/02/01 05:55:49;;;;;;;23.90;21.55;;;4.00;80.90;;;;;;5058490;28;20283;-70
2022/02/01 05:58:17;;;;;;;22.08;20.15;;;4.00;80.20;;;;;;5058453;28;20196;-73
2022/02/01 06:00:46;;;;;;;23.38;21.58;;;4.00;81.50;;;;;;5058042;28;20230;-70
2022/02/01 06:03:13;;;;;;;24.70;22.45;;;4.10;79.80;;;;;;5058647;28;20202;-70
2022/02/01 06:05:40;;;;;;;23.25;21.05;;;4.00;81.00;;;;;;5058294;28;20217;-70
2022/02/01 06:08:07;;;;;;;22.02;20.15;;;4.00;80.90;;;;;;5058275;28;20232;-70
2022/02/01 06:10:36;;;;;;;22.60;20.98;;;4.10;83.40;;;;;;5057937;28;20212;-70
2022/02/01 06:13:03;;;;;;;25.15;23.08;;;4.10;80.60;;;;;;5058400;28;20543;-70
2022/02/01 06:15:31;;;;;;;24.67;22.58;;;4.00;80.80;;;;;;5058069;28;20283;-71
2022/02/01 06:17:59;;;;;;;24.95;22.38;;;4.00;80.70;;;;;;5056996;28;20204;-70
2022/02/01 06:20:26;;;;;;;22.30;20.65;;;4.00;80.80;;;;;;5054722;28;20216;-71
2022/02/01 06:22:53;;;;;;;24.90;22.45;;;4.00;80.90;;;;;;5054987;28;20196;-71
2022/02/01 06:25:38;;;;;;;22.25;20.60;;;4.10;80.40;;;;;;5054824;28;20221;-70
2022/02/01 06:28:05;;;;;;;22.42;20.58;;;4.10;80.50;;;;;;5054881;28;20193;-71
2022/02/01 06:30:32;;;;;;;24.52;22.20;;;4.20;80.80;;;;;;5054524;28;20582;-71
2022/02/01 06:33:00;;;;;;;26.00;23.33;;;4.10;81.60;;;;;;5054948;28;20612;-71
2022/02/01 06:35:30;;;;;;;25.98;23.63;;;4.00;80.30;;;;;;5054782;28;20197;-71
2022/02/01 06:37:57;;;;;;;24.13;22.27;;;4.10;80.30;;;;;;5054698;28;20299;-71
2022/02/01 06:40:24;;;;;;;23.80;21.50;;;4.10;80.70;;;;;;5054503;28;20221;-71
2022/02/01 06:42:52;;;;;;;22.60;20.88;;;4.10;80.00;;;;;;5054715;28;20288;-71
2022/02/01 06:45:19;;;;;;;24.63;22.65;;;4.20;79.70;;;;;;5054507;28;20227;-70
2022/02/01 06:47:46;;;;;;;27.10;24.85;;;4.00;79.60;;;;;;5054616;28;20613;-71
2022/02/01 06:50:19;;;;;;;25.60;23.02;;;4.10;79.70;;;;;;5054233;28;20228;-71
2022/02/01 06:52:46;;;;;;;24.60;22.17;;;4.10;79.80;;;;;;5054510;28;20209;-73
2022/02/01 06:55:21;;;;;;;23.42;21.33;;;4.10;79.80;;;;;;5054416;28;20677;-73
2022/02/01 06:57:48;;;;;;;23.15;21.25;;;4.10;79.70;;;;;;5054539;28;20628;-73
2022/02/01 07:00:15;;;;;;;24.60;22.38;;;4.10;81.10;;;;;;5053996;28;20651;-73
2022/02/01 07:02:42;;;;;;;26.08;23.50;;;4.10;80.50;;;;;;5054306;28;20547;-73
2022/02/01 07:05:09;;;;;;;24.80;22.65;;;4.10;79.50;;;;;;5054053;28;20221;-71
2022/02/01 07:07:38;;;;;;;21.33;19.73;;;4.20;79.70;;;;;;5054195;28;20275;-71
2022/02/01 07:10:05;;;;;;;24.45;22.48;;;4.10;79.60;;;;;;5053761;28;20252;-73
2022/02/01 07:12:32;;;;;;;25.27;23.25;;;4.10;78.90;;;;;;5054148;28;20572;-73
2022/02/01 07:14:59;;;;;;;24.70;22.73;;;4.00;78.80;;;;;;5053999;28;20280;-73
2022/02/01 07:17:26;;;;;;;25.52;23.27;;;4.10;78.90;;;;;;5053931;28;20204;-73
2022/02/01 07:19:53;;;;;;;22.75;20.65;;;4.10;78.80;;;;;;5053557;28;20600;-73
2022/02/01 07:22:19;;;;;;;25.60;23.60;;;4.20;78.70;;;;;;5054050;28;20204;-73
2022/02/01 07:24:57;;;;;;;22.92;21.13;;;4.20;78.50;;;;;;5053772;28;20261;-73
2022/02/01 07:27:37;;;;;;;23.70;22.00;;;4.10;78.60;;;;;;5053963;28;20333;-73
2022/02/01 07:30:08;;;;;;;24.17;22.38;;;4.10;78.80;;;;;;5052580;28;20307;-73
2022/02/01 07:32:35;;;;;;;24.55;22.50;;;4.20;78.00;;;;;;5053860;28;20224;-73
2022/02/01 07:35:03;;;;;;;24.65;22.40;;;4.20;78.50;;;;;;5053588;28;20285;-73
2022/02/01 07:37:30;;;;;;;24.63;22.40;;;4.30;78.50;;;;;;5053682;28;20288;-73
2022/02/01 07:39:58;;;;;;;24.35;22.33;;;4.30;77.50;;;;;;5053254;28;20228;-73
2022/02/01 07:42:25;;;;;;;27.13;24.20;;;4.30;77.50;;;;;;5053577;28;20306;-73
2022/02/01 07:44:52;;;;;;;25.55;23.80;;;4.30;77.60;;;;;;5053295;28;20217;-73
2022/02/01 07:47:21;;;;;;;25.40;23.50;;;4.30;76.80;;;;;;5053398;28;20211;-73
2022/02/01 07:49:49;;;;;;;29.00;23.30;;;4.30;77.40;;;;;;5053033;28;20231;-72
2022/02/01 07:52:16;;;;;;;24.20;22.33;;;4.40;76.30;;;;;;5053279;28;20211;-73
2022/02/01 07:54:43;;;;;;;23.90;22.30;;;4.40;75.90;;;;;;5053423;28;20299;-73
2022/02/01 07:57:12;;;;;;;25.85;23.75;;;4.50;75.80;;;;;;5053263;28;20241;-70
2022/02/01 07:59:38;;;;;;;24.60;22.83;;;4.60;76.00;;;;;;5052777;28;20212;-70
2022/02/01 08:02:16;;;;;;;25.00;22.85;;;4.60;75.20;;;;;;5053300;28;20291;-70
2022/02/01 08:04:43;;;;;;;25.20;22.92;;;4.60;75.30;;;;;;5053204;28;20690;-72
2022/02/01 08:07:11;;;;;;;25.42;23.33;;;4.70;75.70;;;;;;5053133;28;20232;-71
2022/02/01 08:09:41;;;;;;;24.40;22.50;;;4.80;74.80;;;;;;5052919;28;20535;-71
2022/02/01 08:12:28;;;;;;;25.27;23.02;;;4.90;75.00;;;;;;5052674;28;20200;-70
2022/02/01 08:17:45;;;;;;;25.98;23.85;;;4.90;75.10;;;;;;5053017;28;20202;-71
2022/02/01 08:20:16;;;;;;;24.15;22.70;;;5.00;74.30;;;;;;5052674;28;20726;-71
2022/02/01 08:23:01;;;;;;;25.42;23.05;;;5.10;74.50;;;;;;5052836;28;20204;-71
2022/02/01 08:25:28;;;;;;;27.27;25.50;;;5.00;74.70;;;;;;5052768;28;20274;-71
2022/02/01 08:28:00;;;;;;;25.05;23.05;;;5.10;74.50;;;;;;5052853;28;20196;-71
2022/02/01 08:30:27;;;;;;;25.65;23.65;;;5.30;74.00;;;;;;5052608;28;20689;-71
2022/02/01 08:32:54;;;;;;;25.63;23.52;;;5.30;74.40;;;;;;5052694;28;20625;-71
2022/02/01 08:35:22;;;;;;;27.35;25.15;;;5.20;74.70;;;;;;5052452;28;20199;-71
2022/02/01 08:37:49;;;;;;;23.58;22.00;;;5.20;74.80;;;;;;5052741;28;20193;-71
2022/02/01 08:40:16;;;;;;;22.83;21.20;;;5.30;74.90;;;;;;5052461;28;20578;-71
2022/02/01 08:42:44;;;;;;;25.08;23.48;;;5.30;75.10;;;;;;5052052;28;20216;-71
2022/02/01 08:45:14;;;;;;;24.80;22.75;;;5.40;74.40;;;;;;5052279;28;20221;-71
2022/02/01 08:47:42;;;;;;;24.70;23.10;;;5.40;74.10;;;;;;5052342;28;20204;-71
2022/02/01 08:50:10;;;;;;;22.95;21.35;;;5.40;74.50;;;;;;5052158;28;20248;-71
2022/02/01 08:52:41;;;;;;;23.80;21.88;;;5.40;75.20;;;;;;5052347;28;20201;-71
2022/02/01 08:55:19;;;;;;;25.02;22.98;;;5.50;73.70;;;;;;5052343;28;20262;-71
2022/02/01 08:57:46;;;;;;;23.70;22.20;;;5.50;74.90;;;;;;5052326;28;20197;-71
2022/02/01 09:00:17;;;;;;;23.45;21.42;;;5.60;75.10;;;;;;5051778;28;20773;-71
2022/02/01 09:02:46;;;;;;;23.25;21.60;;;5.60;74.10;;;;;;5052309;28;20201;-71
2022/02/01 09:05:13;;;;;;;24.38;22.65;;;5.70;74.70;;;;;;5052057;28;20323;-71
2022/02/01 09:07:40;;;;;;;23.67;21.42;;;5.70;73.80;;;;;;5052183;28;20203;-71
2022/02/01 09:10:08;;;;;;;23.50;21.77;;;5.80;74.00;;;;;;5051842;28;20577;-71
2022/02/01 09:12:35;;;;;;;24.20;22.45;;;5.80;72.70;;;;;;5052186;28;20288;-72
2022/02/01 09:15:02;;;;;;;22.83;21.27;;;5.90;73.00;;;;;;5052045;28;20271;-72
2022/02/01 09:17:31;;;;;;;23.45;21.65;;;5.90;72.40;;;;;;5051901;28;20196;-71
2022/02/01 09:19:58;;;;;;;23.95;21.92;;;6.00;72.80;;;;;;5051729;28;20257;-71
2022/02/01 09:22:26;;;;;;;25.35;22.92;;;6.00;73.20;;;;;;5052092;28;20196;-71
2022/02/01 09:24:52;;;;;;;24.50;22.80;;;6.00;72.20;;;;;;5051701;28;20307;-71
2022/02/01 09:27:20;;;;;;;25.08;23.00;;;6.10;72.30;;;;;;5051938;28;20291;-71
2022/02/01 09:29:47;;;;;;;25.75;23.65;;;6.20;71.70;;;;;;5051716;28;20231;-71
2022/02/01 09:32:14;;;;;;;26.90;24.60;;;6.10;71.50;;;;;;5051996;28;20279;-71
2022/02/01 09:34:43;;;;;;;24.55;22.85;;;6.10;71.40;;;;;;5051896;28;20751;-71
2022/02/01 09:37:09;;;;;;;24.45;22.52;;;6.10;73.40;;;;;;5051977;28;20196;-71
2022/02/01 09:39:36;;;;;;;24.15;22.35;;;6.20;72.20;;;;;;5051586;28;20203;-71
2022/02/01 09:42:04;;;;;;;24.60;22.85;;;6.10;72.40;;;;;;5051931;28;20239;-71
2022/02/01 09:44:30;;;;;;;25.02;23.40;;;6.10;72.40;;;;;;5051848;28;20236;-71
2022/02/01 09:46:57;;;;;;;24.90;23.00;;;6.20;72.40;;;;;;5052055;28;20239;-71
2022/02/01 09:49:25;;;;;;;24.38;22.77;;;6.30;72.00;;;;;;5051468;28;20200;-71
2022/02/01 09:51:57;;;;;;;26.02;24.08;;;6.30;72.00;;;;;;5051638;28;20213;-71
2022/02/01 09:54:26;;;;;;;26.27;24.00;;;6.40;71.40;;;;;;5053846;28;20272;-72
2022/02/01 09:56:54;;;;;;;22.52;21.13;;;6.50;71.70;;;;;;5055562;28;20220;-71
2022/02/01 09:59:30;;;;;;;24.42;22.90;;;6.40;70.90;;;;;;5055379;28;20208;-71
2022/02/01 10:01:57;;;;;;;24.20;22.10;;;6.20;71.10;;;;;;5055541;28;20204;-71
2022/02/01 10:04:28;;;;;;;24.15;22.35;;;6.20;72.40;;;;;;5055337;28;20287;-71
2022/02/01 10:07:09;;;;;;;25.08;22.90;;;6.20;71.80;;;;;;5055228;28;20646;-72
2022/02/01 10:09:47;;;;;;;23.60;21.90;;;6.30;70.90;;;;;;5054928;28;20217;-72
2022/02/01 10:12:17;;;;;;;24.90;23.10;;;6.30;71.30;;;;;;5054971;28;20262;-72
2022/02/01 10:14:52;;;;;;;24.10;22.50;;;6.50;71.10;;;;;;5055021;28;20605;-72
2022/02/01 10:17:26;;;;;;;23.45;21.92;;;6.60;71.10;;;;;;5055052;28;20203;-71
2022/02/01 10:19:53;;;;;;;22.85;21.33;;;6.60;70.70;;;;;;5054889;28;20216;-71
2022/02/01 10:22:32;;;;;;;23.90;21.88;;;6.60;73.10;;;;;;5055018;28;20207;-71
2022/02/01 10:25:02;;;;;;;25.30;23.05;;;6.70;71.10;;;;;;5054996;28;20231;-71
2022/02/01 10:27:31;;;;;;;23.48;21.48;;;6.70;70.50;;;;;;5054961;28;20608;-72
2022/02/01 10:30:04;;;;;;;25.17;23.52;;;6.60;71.20;;;;;;5054523;28;20226;-71
2022/02/01 10:32:45;;;;;;;25.50;23.73;;;6.80;70.90;;;;;;5055010;28;20201;-72
2022/02/01 10:35:24;;;;;;;25.88;24.02;;;7.00;70.70;;;;;;5054782;28;20232;-72
2022/02/01 10:38:00;;;;;;;24.42;22.58;;;7.10;70.50;;;;;;5054633;28;20570;-72
2022/02/01 10:40:41;;;;;;;25.50;23.80;;;7.20;69.80;;;;;;5054494;28;20303;-71
2022/02/01 10:43:17;;;;;;;23.95;22.15;;;7.20;69.30;;;;;;5054883;28;20204;-71
2022/02/01 10:45:45;;;;;;;25.05;23.13;;;7.10;70.60;;;;;;5054722;28;20242;-72
2022/02/01 10:48:14;;;;;;;24.45;22.70;;;7.10;69.60;;;;;;5054603;28;20196;-72
2022/02/01 10:50:41;;;;;;;25.20;23.48;;;7.10;69.40;;;;;;5054349;28;20562;-72
2022/02/01 10:53:18;;;;;;;25.15;23.25;;;7.00;68.80;;;;;;5054651;28;20366;-72
2022/02/01 10:55:45;;;;;;;23.85;22.15;;;6.90;69.50;;;;;;5054670;28;20287;-73
2022/02/01 10:58:14;;;;;;;23.13;21.45;;;6.80;69.00;;;;;;5054391;28;20287;-72
2022/02/01 11:00:42;;;;;;;23.75;22.25;;;6.90;68.80;;;;;;5053977;28;20311;-71
2022/02/01 11:03:10;;;;;;;25.60;23.63;;;6.70;68.90;;;;;;5054268;28;20246;-72
2022/02/01 11:05:38;;;;;;;23.60;21.90;;;6.70;69.00;;;;;;5054059;28;20223;-71
2022/02/01 11:08:06;;;;;;;25.92;23.75;;;6.70;69.00;;;;;;5054214;28;20204;-71
2022/02/01 11:10:34;;;;;;;23.45;21.75;;;6.70;69.10;;;;;;5053621;28;20217;-71
2022/02/01 11:13:06;;;;;;;24.00;22.35;;;6.80;68.40;;;;;;5054051;28;20207;-71
2022/02/01 11:15:33;;;;;;;24.55;22.85;;;6.90;68.40;;;;;;5053813;28;20544;-71
2022/02/01 11:18:09;;;;;;;25.13;23.52;;;6.90;68.10;;;;;;5054060;28;20207;-73
2022/02/01 11:20:36;;;;;;;25.38;23.27;;;6.80;68.40;;;;;;5053838;28;20230;-70
2022/02/01 11:23:04;;;;;;;24.77;22.95;;;6.80;68.70;;;;;;5053934;28;20359;-71
2022/02/01 11:25:45;;;;;;;24.13;22.35;;;6.80;67.90;;;;;;5053852;28;20523;-71
2022/02/01 11:28:33;;;;;;;23.10;21.50;;;6.80;67.90;;;;;;5053864;28;20196;-73
2022/02/01 11:31:01;;;;;;;22.98;21.25;;;6.80;67.60;;;;;;5053540;28;20224;-71
2022/02/01 11:33:36;;;;;;;24.88;23.27;;;6.70;67.20;;;;;;5053790;28;20193;-71
2022/02/01 11:36:05;;;;;;;24.45;22.70;;;6.70;67.60;;;;;;5053803;28;20695;-71
2022/02/01 11:38:32;;;;;;;22.83;21.52;;;6.80;68.00;;;;;;5053825;28;20582;-72
2022/02/01 11:41:03;;;;;;;24.38;22.50;;;6.80;67.20;;;;;;5053539;28;20307;-72
2022/02/01 11:43:31;;;;;;;20.77;19.25;;;6.90;67.70;;;;;;5053884;28;20207;-71
2022/02/01 11:46:01;;;;;;;25.33;22.77;;;6.80;68.40;;;;;;5053605;28;20216;-72
2022/02/01 11:48:31;;;;;;;22.83;21.13;;;6.80;68.60;;;;;;5053497;28;20287;-72
2022/02/01 11:51:00;;;;;;;24.52;22.65;;;6.80;68.10;;;;;;5053542;28;20235;-72
2022/02/01 11:53:30;;;;;;;24.38;22.67;;;6.80;69.00;;;;;;5053707;28;20275;-72
2022/02/01 11:55:58;;;;;;;24.30;22.70;;;6.70;68.90;;;;;;5053476;28;20204;-72
2022/02/01 11:58:33;;;;;;;22.95;21.50;;;6.60;69.80;;;;;;5053379;28;20196;-72
2022/02/01 12:01:02;;;;;;;24.27;22.85;;;6.50;71.40;;;;;;5053110;28;20263;-72
2022/02/01 12:03:36;;;;;;;22.83;21.42;;;6.60;71.10;;;;;;5053345;28;20247;-72
2022/02/01 12:06:08;;;;;;;22.80;21.25;;;6.60;71.10;;;;;;5053169;28;20274;-72
2022/02/01 12:08:37;;;;;;;21.08;19.73;;;6.50;71.10;;;;;;5053208;28;20258;-72
2022/02/01 12:11:07;;;;;;;22.80;21.35;;;6.30;71.60;;;;;;5052467;28;20212;-72
2022/02/01 12:13:36;;;;;;;25.30;23.40;;;6.30;70.60;;;;;;5053037;28;20201;-72
2022/02/01 12:16:10;;;;;;;23.42;22.13;;;6.20;71.10;;;;;;5052173;28;20659;-72
2022/02/01 12:18:44;;;;;;;22.30;21.00;;;6.20;70.80;;;;;;5052854;28;20201;-72
2022/02/01 12:21:21;;;;;;;24.08;22.67;;;6.10;72.00;;;;;;5052828;28;20263;-72
2022/02/01 12:23:50;;;;;;;22.25;20.65;;;6.10;72.10;;;;;;5052815;28;20200;-72
2022/02/01 12:26:22;;;;;;;23.27;21.85;;;6.10;72.00;;;;;;5052426;28;20227;-72
2022/02/01 12:28:52;;;;;;;22.55;21.00;;;6.20;72.40;;;;;;5052609;28;20562;-72
2022/02/01 12:31:20;;;;;;;21.95;20.52;;;6.20;72.00;;;;;;5052461;28;20697;-72
2022/02/01 12:33:50;;;;;;;24.33;22.73;;;6.20;74.30;;;;;;5052678;28;20680;-72
2022/02/01 12:36:21;;;;;;;22.85;21.25;;;6.20;73.50;;;;;;5052594;28;20651;-72
2022/02/01 12:38:50;;;;;;;24.05;22.52;;;6.30;72.00;;;;;;5052507;28;20570;-72
2022/02/01 12:41:19;;;;;;;23.58;22.08;;;6.40;71.60;;;;;;5052308;28;20220;-72
2022/02/01 12:46:44;;;;;;;28.27;26.38;;;6.50;70.70;;;;;;5029672;28;20233;-71
2022/02/01 12:49:11;;;;;;;24.35;22.85;;;6.50;71.90;;;;;;5052178;28;20211;-72
2022/02/01 12:51:43;;;;;;;22.10;20.90;;;6.50;71.00;;;;;;5052176;28;20720;-72
2022/02/01 12:54:22;;;;;;;22.02;20.63;;;6.60;70.50;;;;;;5052355;28;20258;-71
2022/02/01 12:56:50;;;;;;;24.25;22.85;;;6.60;70.90;;;;;;5052451;28;20275;-72
2022/02/01 12:59:21;;;;;;;23.90;22.40;;;6.50;72.00;;;;;;5051978;28;20209;-72
2022/02/01 13:01:49;;;;;;;23.55;22.05;;;6.50;70.80;;;;;;5052275;28;20307;-72
2022/02/01 13:04:22;;;;;;;22.52;21.33;;;6.50;71.30;;;;;;5052285;28;20193;-72
2022/02/01 13:06:50;;;;;;;24.80;22.85;;;6.50;71.40;;;;;;5052180;28;20227;-72
2022/02/01 13:15:06;;;;;;;23.15;21.85;;;6.60;71.00;;;;;;5052263;28;20322;-72
2022/02/01 13:17:42;;;;;;;23.63;22.33;;;6.60;70.90;;;;;;5052024;28;20287;-72
2022/02/01 13:20:20;;;;;;;25.40;23.52;;;6.70;70.50;;;;;;5051956;28;20220;-71
2022/02/01 13:22:57;;;;;;;24.50;22.95;;;6.70;70.70;;;;;;5052230;28;20192;-72
2022/02/01 13:25:36;;;;;;;22.67;21.48;;;6.70;70.60;;;;;;5051970;28;20206;-71
2022/02/01 13:28:10;;;;;;;22.92;21.52;;;6.80;70.50;;;;;;5053586;28;20188;-72
2022/02/01 13:30:39;;;;;;;23.65;22.45;;;6.80;69.90;;;;;;5055999;28;20274;-72
2022/02/01 13:33:09;;;;;;;24.17;22.88;;;6.70;70.10;;;;;;5056128;28;20202;-72
2022/02/01 13:35:45;;;;;;;22.30;21.30;;;6.70;70.10;;;;;;5055986;28;20200;-72
2022/02/01 13:38:12;;;;;;;22.98;21.58;;;6.70;70.10;;;;;;5056060;28;20208;-72
2022/02/01 13:40:40;;;;;;;22.13;20.92;;;6.50;70.90;;;;;;5055637;28;20224;-71
2022/02/01 13:43:18;;;;;;;25.48;24.05;;;6.30;71.00;;;;;;5056011;28;20224;-72
2022/02/01 13:45:49;;;;;;;22.20;20.85;;;6.20;71.70;;;;;;5055764;28;20235;-72
2022/02/01 13:48:23;;;;;;;24.08;22.55;;;6.20;71.60;;;;;;5055794;28;20662;-72
2022/02/01 13:50:50;;;;;;;22.85;21.65;;;6.10;71.40;;;;;;5055597;28;20339;-72
2022/02/01 13:53:18;;;;;;;22.13;20.90;;;6.10;72.10;;;;;;5055726;28;20662;-72
2022/02/01 13:55:46;;;;;;;21.80;20.40;;;6.10;72.10;;;;;;5055535;28;20201;-72